Brownstown Township, MI

10:14 AM EST on January 31, 2015 (GMT -0500)
Detroit City | Change Station
CLOSE
Current Station
Airport
Location: Detroit,
Elevation: 623 ft
Nearby Weather Stations
Active Advisory: Winter Storm Watch

Elev 623 ft 42.41 °N, 83.01 °W | Updated 21 minutes ago

Overcast
Overcast
21 °F
Feels Like 13 °F
N
7
Wind Variable Wind from South

Today
High -- | Low -- °F
--% Chance of Precip.
Yesterday
High -- | Low -- °F
Precip. -- in
7:47 AM 5:46 PM
Waxing Gibbous, 90% visible
Pressure 30.29 in
Visibility 10.0 miles
Clouds Overcast 2800 ft
Windchill 13 °F
Dew Point 14 °F
Humidity 74%
Rainfall 0.00 in
Snow Depth Not available.
UV 0 out of 12
Pollen .10 out of 12
Air Quality Not available.
Flu Activity Not available.
METAR KDET 311453Z 19006KT 10SM OVC028 M06/M10 A3029

More Conditions Fewer Conditions

Pressure 30.29 in
Visibility 10.0 miles
Clouds Overcast 2800 ft
Windchill 13 °F
Dew Point 14 °F
Humidity 74%
Rainfall 0.00 in
Snow Depth Not available.
UV 0 out of 12
Pollen .10 out of 12
Air Quality Not available.
Flu Activity Not available.
METAR KDET 311453Z 19006KT 10SM OVC028 M06/M10 A3029

More Conditions Fewer Conditions

10-Day Weather Forecast

Almanac

Astronomy

Jan. 31, 2015 Rise Set
Actual Time
Civil Twilight
Nautical Twilight
Astronomical Twilight
Moon
Length of Visible Light
Length of Day
Tomorrow will be .
, % of the Moon is Illuminated

Today's Extremes

State Highs State Lows

Community

WunderPhotos

Upload Photos

1,792,084 photos uploaded!

WunderBlogs® & News

Nearby

Air Quality

  Air Quality AQ Index Pollutant
Not available.

Snow Depth

Station Depth Elevation

Earthquake Activity

City Distance Mag. Time & Date
Minimum magnitude displayed is 2.5.

Coastal Water Temperatures

Place Temperature

Nearby Weather Stations